Aguada De Pasajeros, Cuba

9:18 PM CDT on July 30, 2014 (GMT -0400)
Juan G. Gomez International (MUVR) Elev 213 ft | 23.03 °N, 81.44 °W | Change Station

Current weather conditions updated 27 minutes ago

Partly Cloudy
Partly Cloudy
81 °F
Feels Like 85 °F
N
2
Wind Variable Wind from Variable

Tomorrow is forecast to be Warmer than today. Showers and thunderstorms late.

Today
High -- | Low -- °F
--% Chance of Precip.
Yesterday
High -- | Low -- °F
Precip. -- in
6:54 AM 8:05 PM
Waxing Crescent, 15% visible
Pressure 30.04 in
Visibility 5.6 miles
Clouds Few 2000 ft
Heat Index 85 °F
Dew Point 73 °F
Humidity 79%
Rainfall 0.00 in
Snow Depth Not available.
UV 0 out of 12
Pollen Not available.
Air Quality Not available.
Flu Activity Not available.
METAR MUVR 310051Z VRB02KT 9000 FEW020 27/23 Q1017

More Conditions Fewer Conditions

Pressure 30.04 in
Visibility 5.6 miles
Clouds Few 2000 ft
Heat Index 85 °F
Dew Point 73 °F
Humidity 79%
Rainfall 0.00 in
Snow Depth Not available.
UV 0 out of 12
Pollen Not available.
Air Quality Not available.
Flu Activity Not available.
METAR MUVR 310051Z VRB02KT 9000 FEW020 27/23 Q1017

More Conditions Fewer Conditions

10-Day Weather Forecast

Almanac

Astronomy

Jul. 30, 2014 Rise Set
Actual Time 6:54 AM CDT 8:05 PM CDT
Civil Twilight 6:30 AM CDT 8:29 PM CDT
Nautical Twilight 6:01 AM CDT 8:57 PM CDT
Astronomical Twilight 5:32 AM CDT 9:26 PM CDT
Moon 9:54 AM CDT (7/30) 10:20 PM CDT (7/30)
Length of Visible Light 13h 58m
Length of Day
13h 10m
Tomorrow will be 0m 56s shorter.
Waxing Crescent, 15% of the Moon is Illuminated
Today
Waxing Crescent
Aug 3
First Quarter
Aug 10
Full
Aug 17
Last Quarter
Aug 25
New

Today's Extremes

Country Highs Country Lows

Community

WunderPhotos

Upload Photos

1,739,261 photos uploaded!

Nearby

Snow Depth

Not available.

Earthquake Activity

City Distance Mag. Time & Date
No recent earthquake activity has been reported nearby.
Minimum magnitude displayed is 2.5.

Coastal Water Temperatures

Place Temperature
No Stations Reporting

Nearby Weather Stations

There are no personal weather stations in this area.